createdAt,value
2019-05-05T00:02:24.856Z,6.34
2019-05-05T00:07:27.460Z,6.35
2019-05-05T00:12:35.701Z,6.28
2019-05-05T00:17:38.232Z,6.20
2019-05-05T00:22:40.696Z,5.90
2019-05-05T00:27:45.146Z,5.95
2019-05-05T00:32:45.592Z,5.92
2019-05-05T00:37:48.055Z,5.79
2019-05-05T00:42:50.513Z,5.64
2019-05-05T00:47:55.880Z,5.59
2019-05-05T00:52:58.344Z,5.53
2019-05-05T00:58:00.796Z,5.53
2019-05-05T01:03:04.759Z,5.57
2019-05-05T01:08:05.719Z,5.60
2019-05-05T01:13:08.196Z,5.57
2019-05-05T01:18:10.654Z,5.41
2019-05-05T01:23:15.054Z,5.39
2019-05-05T01:28:15.568Z,5.34
2019-05-05T01:33:30.118Z,5.20
2019-05-05T01:38:35.534Z,5.17
2019-05-05T01:43:38.002Z,5.08
2019-05-05T01:48:40.464Z,5.02
2019-05-05T01:53:44.287Z,4.94
2019-05-05T01:58:45.401Z,4.87
2019-05-05T02:03:47.855Z,4.81
2019-05-05T02:08:50.306Z,4.82
2019-05-05T02:13:54.574Z,4.74
2019-05-05T02:18:55.268Z,4.66
2019-05-05T02:23:57.721Z,4.66
2019-05-05T02:29:06.210Z,4.54
2019-05-05T02:34:08.671Z,4.54
2019-05-05T02:39:11.153Z,4.43
2019-05-05T02:44:15.460Z,4.45
2019-05-05T02:49:16.073Z,4.64
2019-05-05T02:54:18.585Z,4.75
2019-05-05T02:59:20.978Z,4.91
2019-05-05T03:04:24.449Z,4.84
2019-05-05T03:09:25.885Z,5.04
2019-05-05T03:14:28.345Z,5.06
2019-05-05T03:19:30.812Z,5.01
2019-05-05T03:24:34.102Z,4.80
2019-05-05T03:29:35.719Z,4.91
2019-05-05T03:34:38.179Z,4.57
2019-05-05T03:39:40.640Z,4.46
2019-05-05T03:44:54.404Z,4.40
2019-05-05T03:49:54.899Z,4.37
2019-05-05T03:54:57.357Z,4.12
2019-05-05T03:59:59.806Z,4.10
2019-05-05T04:05:04.021Z,4.08
2019-05-05T04:10:04.732Z,4.10
2019-05-05T04:15:07.188Z,4.11
2019-05-05T04:20:18.737Z,4.27
2019-05-05T04:25:21.190Z,4.33
2019-05-05T04:30:23.856Z,4.51
2019-05-05T04:35:26.107Z,4.67
2019-05-05T04:40:28.569Z,4.66
2019-05-05T04:45:31.028Z,4.87
2019-05-05T04:50:44.081Z,4.96
2019-05-05T04:55:44.739Z,5.13
2019-05-05T05:00:47.224Z,5.35
2019-05-05T05:05:53.570Z,5.63
2019-05-05T05:10:54.655Z,5.79
2019-05-05T05:15:57.123Z,5.95
2019-05-05T05:20:59.586Z,6.02
2019-05-05T05:26:02.048Z,6.01
2019-05-05T05:31:04.518Z,6.11
2019-05-05T05:36:06.972Z,6.17
2019-05-05T05:41:09.428Z,6.51
2019-05-05T05:46:14.734Z,6.70
2019-05-05T05:51:19.350Z,6.82
2019-05-05T05:56:19.579Z,7.36
2019-05-05T06:01:23.919Z,8.39
2019-05-05T06:06:24.520Z,9.40
2019-05-05T06:11:26.981Z,10.09
2019-05-05T06:16:29.451Z,10.02
2019-05-05T06:21:33.739Z,9.80
2019-05-05T06:26:34.579Z,10.01
2019-05-05T06:31:36.875Z,10.56
2019-05-05T06:36:39.356Z,11.22
2019-05-05T06:41:50.967Z,11.47
2019-05-05T06:47:08.719Z,11.80
2019-05-05T06:52:11.637Z,11.65
2019-05-05T06:57:14.123Z,12.90
2019-05-05T07:02:16.610Z,12.97
2019-05-05T07:07:19.066Z,13.20
2019-05-05T07:12:21.514Z,12.61
2019-05-05T07:17:24.626Z,13.20
2019-05-05T07:22:26.429Z,13.30
2019-05-05T07:27:28.891Z,13.77
2019-05-05T07:32:31.346Z,14.30
2019-05-05T07:37:34.370Z,13.25
2019-05-05T07:42:36.263Z,13.14
2019-05-05T07:47:38.776Z,13.63
2019-05-05T07:52:41.242Z,13.35
2019-05-05T07:57:43.699Z,13.72
2019-05-05T08:02:46.329Z,14.43
2019-05-05T08:07:48.787Z,14.81
2019-05-05T08:12:51.263Z,16.25
2019-05-05T08:18:04.512Z,16.54
2019-05-05T08:23:08.169Z,18.71
2019-05-05T08:28:07.465Z,26.72
2019-05-05T08:33:09.915Z,38.30
2019-05-05T08:38:13.780Z,38.65
2019-05-05T08:43:14.862Z,42.63
2019-05-05T08:48:17.320Z,47.04
2019-05-05T08:53:19.773Z,47.90
2019-05-05T08:58:23.764Z,48.64
2019-05-05T09:03:24.699Z,47.43
2019-05-05T09:08:27.152Z,45.29
2019-05-05T09:13:29.619Z,42.93
2019-05-05T09:18:33.980Z,47.38
2019-05-05T09:23:34.759Z,48.18
2019-05-05T09:28:37.006Z,46.76
2019-05-05T09:33:39.457Z,47.51
2019-05-05T09:38:41.931Z,48.33
2019-05-05T09:43:44.685Z,48.65
2019-05-05T09:48:46.900Z,51.90
2019-05-05T09:53:49.356Z,51.40
2019-05-05T09:58:51.824Z,50.56
2019-05-05T10:03:54.302Z,45.35
2019-05-05T10:08:56.764Z,51.67
2019-05-05T10:13:59.233Z,43.89
2019-05-05T10:19:01.714Z,29.82
2019-05-05T10:24:07.088Z,22.29
2019-05-05T10:29:09.555Z,20.21
2019-05-05T10:34:14.522Z,24.44
2019-05-05T10:39:26.147Z,24.11
2019-05-05T10:44:28.606Z,20.44
2019-05-05T10:49:31.063Z,20.38
2019-05-05T10:54:41.683Z,23.77
2019-05-05T10:59:35.988Z,21.11
2019-05-05T11:04:38.458Z,21.51
2019-05-05T11:09:40.922Z,27.88
2019-05-05T11:14:44.264Z,27.71
2019-05-05T11:19:45.873Z,21.09
2019-05-05T11:24:59.955Z,32.62
2019-05-05T11:30:09.337Z,24.97
2019-05-05T11:35:13.897Z,32.48
2019-05-05T11:40:14.377Z,28.50
2019-05-05T11:45:16.831Z,22.42
2019-05-05T11:50:19.303Z,42.63
2019-05-05T11:55:21.798Z,25.81
2019-05-05T12:00:24.257Z,29.76
2019-05-05T12:05:26.728Z,23.86
2019-05-05T12:10:29.199Z,27.70
2019-05-05T12:15:31.664Z,30.33
2019-05-05T12:20:36.782Z,26.27
2019-05-05T12:25:48.259Z,22.64
2019-05-05T12:30:50.720Z,21.25
2019-05-05T12:35:53.987Z,20.65
2019-05-05T12:40:55.664Z,21.51
2019-05-05T12:46:04.496Z,26.99
2019-05-05T12:51:06.120Z,22.75
2019-05-05T12:56:08.604Z,19.96
2019-05-05T13:01:11.245Z,18.08
2019-05-05T13:06:14.617Z,18.87
2019-05-05T13:11:16.204Z,19.01
2019-05-05T13:16:18.681Z,18.94
2019-05-05T13:21:34.705Z,18.05
2019-05-05T13:26:41.852Z,17.64
2019-05-05T13:31:44.335Z,17.27
2019-05-05T13:36:46.803Z,17.47
2019-05-05T13:41:49.287Z,17.65
2019-05-05T13:46:53.564Z,18.05
2019-05-05T13:51:54.195Z,19.15
2019-05-05T13:56:56.674Z,20.59
2019-05-05T14:01:59.134Z,18.70
2019-05-05T14:07:03.834Z,17.97
2019-05-05T14:12:04.240Z,18.09
2019-05-05T14:17:06.539Z,17.20
2019-05-05T14:22:09.023Z,17.13
2019-05-05T14:27:11.513Z,17.18
2019-05-05T14:32:13.978Z,16.65
2019-05-05T14:37:25.606Z,16.61
2019-05-05T14:42:28.073Z,16.59
2019-05-05T14:47:30.553Z,16.04
2019-05-05T14:52:33.003Z,15.80
2019-05-05T14:57:35.484Z,16.15
2019-05-05T15:02:37.934Z,15.87
2019-05-05T15:07:40.398Z,15.36
2019-05-05T15:12:45.989Z,15.49
2019-05-05T15:17:48.454Z,15.53
2019-05-05T15:22:50.907Z,15.87
2019-05-05T15:27:54.221Z,16.45
2019-05-05T15:32:55.844Z,15.74
2019-05-05T15:37:58.290Z,15.55
2019-05-05T15:43:00.775Z,15.55
2019-05-05T15:48:04.635Z,15.46
2019-05-05T15:53:05.811Z,15.48
2019-05-05T15:58:08.197Z,15.63
2019-05-05T16:03:10.678Z,15.26
2019-05-05T16:08:14.171Z,15.67
2019-05-05T16:13:15.627Z,15.50
2019-05-05T16:18:27.229Z,15.43
2019-05-05T16:23:35.665Z,14.75
2019-05-05T16:28:35.108Z,14.73
2019-05-05T16:33:37.579Z,14.75
2019-05-05T16:38:40.055Z,14.43
2019-05-05T16:43:44.268Z,14.62
2019-05-05T16:48:45.033Z,14.43
2019-05-05T16:53:47.496Z,14.39
2019-05-05T16:58:50.645Z,14.07
2019-05-05T17:03:54.264Z,13.92
2019-05-05T17:08:58.547Z,13.94
2019-05-05T17:14:07.022Z,13.93
2019-05-05T17:19:18.606Z,13.94
2019-05-05T17:24:21.388Z,13.78
2019-05-05T17:29:23.875Z,13.55
2019-05-05T17:34:26.357Z,13.25
2019-05-05T17:39:28.887Z,13.21
2019-05-05T17:44:40.569Z,13.17
2019-05-05T17:49:43.518Z,13.00
2019-05-05T17:54:45.510Z,13.03
2019-05-05T17:59:47.975Z,12.90
2019-05-05T18:04:50.475Z,12.77
2019-05-05T18:10:11.134Z,12.59
2019-05-05T18:15:13.688Z,12.32
2019-05-05T18:20:16.077Z,11.89
2019-05-05T18:25:18.554Z,11.64
2019-05-05T18:30:21.046Z,11.43
2019-05-05T18:35:24.266Z,11.36
2019-05-05T18:40:26.175Z,11.27
2019-05-05T18:45:28.766Z,11.20
2019-05-05T18:50:31.228Z,10.83
2019-05-05T18:55:33.929Z,10.63
2019-05-05T19:00:54.663Z,10.34
2019-05-05T19:06:15.150Z,10.12
2019-05-05T19:11:17.624Z,9.96
2019-05-05T19:16:20.097Z,9.82
2019-05-05T19:21:24.755Z,9.58
2019-05-05T19:26:25.037Z,9.42
2019-05-05T19:31:27.518Z,9.30
2019-05-05T19:36:30.048Z,9.03
2019-05-05T19:41:34.667Z,8.77
2019-05-05T19:46:35.004Z,8.83
2019-05-05T19:51:37.464Z,8.86
2019-05-05T19:56:39.930Z,8.78
2019-05-05T20:01:44.735Z,8.66
2019-05-05T20:06:44.871Z,8.55
2019-05-05T20:11:47.360Z,8.39
2019-05-05T20:17:08.090Z,8.15
2019-05-05T20:22:10.595Z,7.89
2019-05-05T20:27:13.953Z,7.83
2019-05-05T20:32:15.582Z,7.77
2019-05-05T20:37:18.035Z,7.49
2019-05-05T20:42:20.467Z,7.63
2019-05-05T20:47:23.628Z,7.56
2019-05-05T20:52:25.389Z,7.64
2019-05-05T20:57:27.867Z,7.77
2019-05-05T21:02:30.315Z,8.13
2019-05-05T21:07:34.630Z,8.10
2019-05-05T21:12:42.323Z,8.10
2019-05-05T21:17:37.820Z,8.22
2019-05-05T21:22:53.847Z,8.35
2019-05-05T21:27:54.333Z,8.25
2019-05-05T21:32:56.801Z,8.32
2019-05-05T21:37:59.248Z,8.43
2019-05-05T21:43:01.701Z,8.57
2019-05-05T21:48:04.517Z,8.42
2019-05-05T21:53:14.071Z,8.42
2019-05-05T21:58:15.059Z,8.57
2019-05-05T22:03:20.352Z,8.77
2019-05-05T22:08:23.924Z,8.79
2019-05-05T22:13:25.271Z,8.76
2019-05-05T22:18:27.718Z,8.79
2019-05-05T22:23:30.175Z,8.80
2019-05-05T22:28:34.042Z,8.86
2019-05-05T22:33:35.096Z,8.90
2019-05-05T22:38:37.554Z,9.01
2019-05-05T22:43:39.997Z,8.94
2019-05-05T22:48:43.987Z,9.06
2019-05-05T22:53:44.906Z,9.04
2019-05-05T22:58:47.359Z,9.00
2019-05-05T23:04:08.204Z,8.95
2019-05-05T23:09:10.678Z,8.89
2019-05-05T23:14:28.005Z,8.83
2019-05-05T23:19:39.437Z,8.78
2019-05-05T23:24:44.954Z,8.68
2019-05-05T23:29:44.663Z,8.68
2019-05-05T23:34:46.789Z,8.60
2019-05-05T23:39:49.283Z,8.51
2019-05-05T23:44:53.587Z,8.54
2019-05-05T23:49:54.206Z,8.47
2019-05-05T23:54:56.666Z,8.52
2019-05-05T23:59:59.128Z,8.60
